createdAt,value
2023-01-19T00:00:18.885Z,16.47
2023-01-19T00:02:47.412Z,15.83
2023-01-19T00:05:14.858Z,16.37
2023-01-19T00:07:41.935Z,16.20
2023-01-19T00:10:09.870Z,17.27
2023-01-19T00:12:37.033Z,19.63
2023-01-19T00:15:04.289Z,17.97
2023-01-19T00:17:31.322Z,15.93
2023-01-19T00:19:58.153Z,18.77
2023-01-19T00:22:25.037Z,19.67
2023-01-19T00:24:51.823Z,22.23
2023-01-19T00:27:18.691Z,20.17
2023-01-19T00:29:45.408Z,22.77
2023-01-19T00:32:12.204Z,17.50
2023-01-19T00:34:42.545Z,17.43
2023-01-19T00:37:10.039Z,18.37
2023-01-19T00:39:36.843Z,15.90
2023-01-19T00:42:22.776Z,18.13
2023-01-19T00:44:49.550Z,16.80
2023-01-19T00:47:16.296Z,15.27
2023-01-19T00:49:43.056Z,16.37
2023-01-19T00:52:09.791Z,14.97
2023-01-19T00:54:36.517Z,15.10
2023-01-19T00:57:03.510Z,14.90
2023-01-19T00:59:30.258Z,16.23
2023-01-19T01:01:57.171Z,15.97
2023-01-19T01:04:24.029Z,18.80
2023-01-19T01:06:50.802Z,15.27
2023-01-19T01:09:17.561Z,17.73
2023-01-19T01:11:44.493Z,22.17
2023-01-19T01:14:12.505Z,23.00
2023-01-19T01:16:39.616Z,23.13
2023-01-19T01:19:06.492Z,21.03
2023-01-19T01:21:34.649Z,20.57
2023-01-19T01:24:01.786Z,20.83
2023-01-19T01:26:28.919Z,48.60
2023-01-19T01:28:55.614Z,39.97
2023-01-19T01:31:22.366Z,40.50
2023-01-19T01:33:49.124Z,60.63
2023-01-19T01:36:15.851Z,44.33
2023-01-19T01:38:42.654Z,38.73
2023-01-19T01:41:09.646Z,35.63
2023-01-19T01:43:54.837Z,34.47
2023-01-19T01:46:21.598Z,24.50
2023-01-19T01:49:07.726Z,24.10
2023-01-19T01:51:44.001Z,23.97
2023-01-19T01:54:13.643Z,33.17
2023-01-19T01:56:47.394Z,27.37
2023-01-19T01:59:39.027Z,44.60
2023-01-19T02:02:29.831Z,41.67
2023-01-19T02:05:04.101Z,36.73
2023-01-19T02:08:07.710Z,27.70
2023-01-19T02:10:53.048Z,28.97
2023-01-19T02:13:20.710Z,29.57
2023-01-19T02:15:53.241Z,23.73
2023-01-19T02:18:22.331Z,24.23
2023-01-19T02:21:00.757Z,26.23
2023-01-19T02:23:57.211Z,28.00
2023-01-19T02:26:33.321Z,20.13
2023-01-19T02:29:06.605Z,16.07
2023-01-19T02:31:35.401Z,17.00
2023-01-19T02:34:03.869Z,16.17
2023-01-19T02:36:54.336Z,16.50
2023-01-19T02:39:31.105Z,14.67
2023-01-19T02:42:03.466Z,14.57
2023-01-19T02:44:31.695Z,15.63
2023-01-19T02:46:58.531Z,14.07
2023-01-19T02:49:28.969Z,17.40
2023-01-19T02:51:56.384Z,16.03
2023-01-19T02:54:25.964Z,14.30
2023-01-19T02:57:10.621Z,18.27
2023-01-19T02:59:52.547Z,16.17
2023-01-19T03:02:36.873Z,14.50
2023-01-19T03:05:21.994Z,13.30
2023-01-19T03:08:18.573Z,16.30
2023-01-19T03:10:50.072Z,14.20
2023-01-19T03:13:19.343Z,13.30
2023-01-19T03:15:50.304Z,13.80
2023-01-19T03:18:21.303Z,14.50
2023-01-19T03:20:53.399Z,14.50
2023-01-19T03:23:22.941Z,13.23
2023-01-19T03:25:52.894Z,13.60
2023-01-19T03:28:21.604Z,13.13
2023-01-19T03:30:58.829Z,12.73
2023-01-19T03:33:32.959Z,12.10
2023-01-19T03:36:14.283Z,13.53
2023-01-19T03:38:42.967Z,13.43
2023-01-19T03:41:13.439Z,14.60
2023-01-19T03:43:41.307Z,13.40
2023-01-19T03:46:10.898Z,11.70
2023-01-19T03:48:39.033Z,12.30
2023-01-19T03:51:08.450Z,12.40
2023-01-19T03:53:35.241Z,12.47
2023-01-19T03:56:02.331Z,12.20
2023-01-19T03:58:29.147Z,13.47
2023-01-19T04:00:55.887Z,12.63
2023-01-19T04:03:22.802Z,13.03
2023-01-19T04:05:49.558Z,12.90
2023-01-19T04:08:16.328Z,11.53
2023-01-19T04:10:43.037Z,11.33
2023-01-19T04:13:09.755Z,11.90
2023-01-19T04:15:36.504Z,10.33
2023-01-19T04:18:03.355Z,12.87
2023-01-19T04:20:30.151Z,14.23
2023-01-19T04:23:01.449Z,11.20
2023-01-19T04:25:28.551Z,12.10
2023-01-19T04:27:57.901Z,9.67
2023-01-19T04:30:25.274Z,11.73
2023-01-19T04:32:52.053Z,10.80
2023-01-19T04:35:18.876Z,10.53
2023-01-19T04:37:45.732Z,11.57
2023-01-19T04:40:12.700Z,10.23
2023-01-19T04:42:42.939Z,11.87
2023-01-19T04:45:10.107Z,11.37
2023-01-19T04:47:37.455Z,12.20
2023-01-19T04:50:05.860Z,12.17
2023-01-19T04:52:35.006Z,13.30
2023-01-19T04:55:03.405Z,14.23
2023-01-19T04:57:31.189Z,12.57
2023-01-19T04:59:58.803Z,11.43
2023-01-19T05:02:26.206Z,11.30
2023-01-19T05:04:53.243Z,12.80
2023-01-19T05:07:19.985Z,12.13
2023-01-19T05:09:46.732Z,11.73
2023-01-19T05:12:13.447Z,11.77
2023-01-19T05:14:40.165Z,10.63
2023-01-19T05:17:07.160Z,12.27
2023-01-19T05:19:33.977Z,11.67
2023-01-19T05:22:02.585Z,12.33
2023-01-19T05:24:29.645Z,11.10
2023-01-19T05:26:56.480Z,11.00
2023-01-19T05:29:23.386Z,11.20
2023-01-19T05:31:50.171Z,12.37
2023-01-19T05:34:17.093Z,13.33
2023-01-19T05:36:43.977Z,14.13
2023-01-19T05:39:10.742Z,10.23
2023-01-19T05:41:37.503Z,10.43
2023-01-19T05:44:04.510Z,10.27
2023-01-19T05:46:31.304Z,11.23
2023-01-19T05:48:58.311Z,11.13
2023-01-19T05:51:25.483Z,10.27
2023-01-19T05:53:52.179Z,10.87
2023-01-19T05:56:18.962Z,12.97
2023-01-19T05:58:45.689Z,11.90
2023-01-19T06:01:12.497Z,11.47
2023-01-19T06:03:39.902Z,10.57
2023-01-19T06:06:06.931Z,11.43
2023-01-19T06:08:33.972Z,11.13
2023-01-19T06:11:00.731Z,11.63
2023-01-19T06:13:27.479Z,13.40
2023-01-19T06:16:01.595Z,13.37
2023-01-19T06:18:29.306Z,13.37
2023-01-19T06:20:58.787Z,11.87
2023-01-19T06:23:30.896Z,11.17
2023-01-19T06:25:57.953Z,12.10
2023-01-19T06:28:25.300Z,11.90
2023-01-19T06:30:53.895Z,12.57
2023-01-19T06:33:21.227Z,10.90
2023-01-19T06:35:49.813Z,10.67
2023-01-19T06:38:18.543Z,10.27
2023-01-19T06:40:58.584Z,9.27
2023-01-19T06:43:26.727Z,12.73
2023-01-19T06:45:53.671Z,10.43
2023-01-19T06:48:20.794Z,10.80
2023-01-19T06:50:48.286Z,10.10
2023-01-19T06:53:16.688Z,9.63
2023-01-19T06:55:44.233Z,10.17
2023-01-19T06:58:11.851Z,9.50
2023-01-19T07:00:39.221Z,9.17
2023-01-19T07:03:07.554Z,7.73
2023-01-19T07:05:37.452Z,8.97
2023-01-19T07:08:04.580Z,10.77
2023-01-19T07:11:25.073Z,10.33
2023-01-19T07:13:18.044Z,8.73
2023-01-19T07:15:44.871Z,8.80
2023-01-19T07:18:11.583Z,10.10
2023-01-19T07:20:38.451Z,10.73
2023-01-19T07:23:05.269Z,8.50
2023-01-19T07:25:32.080Z,10.13
2023-01-19T07:28:00.074Z,9.13
2023-01-19T07:30:27.236Z,10.53
2023-01-19T07:32:58.525Z,9.97
2023-01-19T07:35:25.809Z,10.13
2023-01-19T07:37:52.752Z,10.30
2023-01-19T07:40:19.608Z,11.27
2023-01-19T07:42:50.512Z,11.27
2023-01-19T07:45:18.789Z,9.27
2023-01-19T07:47:46.117Z,10.20
2023-01-19T07:50:13.749Z,9.90
2023-01-19T07:52:40.508Z,9.30
2023-01-19T07:55:08.365Z,10.80
2023-01-19T07:57:36.025Z,10.30
2023-01-19T08:00:04.958Z,11.50
2023-01-19T08:02:39.152Z,9.47
2023-01-19T08:05:06.277Z,9.43
2023-01-19T08:07:34.028Z,10.53
2023-01-19T08:10:00.745Z,11.43
2023-01-19T08:12:27.460Z,10.57
2023-01-19T08:14:54.277Z,11.67
2023-01-19T08:17:20.988Z,11.10
2023-01-19T08:19:47.679Z,10.63
2023-01-19T08:22:14.640Z,11.57
2023-01-19T08:24:41.418Z,11.10
2023-01-19T08:27:09.917Z,12.40
2023-01-19T08:29:37.037Z,13.40
2023-01-19T08:32:04.787Z,12.87
2023-01-19T08:34:31.908Z,12.37
2023-01-19T08:36:59.438Z,12.33
2023-01-19T08:39:27.375Z,12.77
2023-01-19T08:41:54.508Z,12.93
2023-01-19T08:44:21.473Z,11.23
2023-01-19T08:46:48.352Z,11.73
2023-01-19T08:49:15.772Z,9.40
2023-01-19T08:51:46.241Z,13.93
2023-01-19T08:54:13.829Z,12.23
2023-01-19T08:56:40.654Z,11.10
2023-01-19T08:59:10.853Z,12.23
2023-01-19T09:01:39.013Z,12.07
2023-01-19T09:04:06.239Z,10.57
2023-01-19T09:06:33.087Z,10.80
2023-01-19T09:09:00.516Z,10.50
2023-01-19T09:11:27.794Z,10.10
2023-01-19T09:13:54.653Z,10.70
2023-01-19T09:16:21.516Z,10.10
2023-01-19T09:18:48.435Z,9.00
2023-01-19T09:21:15.251Z,11.57
2023-01-19T09:23:42.163Z,10.00
2023-01-19T09:26:09.959Z,9.53
2023-01-19T09:28:37.587Z,9.20
2023-01-19T09:31:06.633Z,9.27
2023-01-19T09:33:33.854Z,9.37
2023-01-19T09:36:02.049Z,8.80
2023-01-19T09:38:32.553Z,7.87
2023-01-19T09:41:00.296Z,8.47
2023-01-19T09:43:38.755Z,9.40
2023-01-19T09:46:17.900Z,7.40
2023-01-19T09:48:48.304Z,7.53
2023-01-19T09:51:21.133Z,8.17
2023-01-19T09:53:53.094Z,6.23
2023-01-19T09:56:21.231Z,6.57
2023-01-19T09:58:49.666Z,9.90
2023-01-19T10:01:22.900Z,5.80
2023-01-19T10:03:55.357Z,7.93
2023-01-19T10:06:23.149Z,8.27
2023-01-19T10:09:05.219Z,6.57
2023-01-19T10:11:51.996Z,5.80
2023-01-19T10:14:49.101Z,5.83
2023-01-19T10:17:59.460Z,6.87
2023-01-19T10:20:33.385Z,7.00
2023-01-19T10:23:01.869Z,9.23
2023-01-19T10:25:29.263Z,8.07
2023-01-19T10:27:58.036Z,8.53
2023-01-19T10:30:28.633Z,13.13
2023-01-19T10:32:55.555Z,12.07
2023-01-19T10:35:27.025Z,12.57
2023-01-19T10:38:00.650Z,12.07
2023-01-19T10:40:36.227Z,11.23
2023-01-19T10:43:35.098Z,11.17
2023-01-19T10:46:57.778Z,12.13
2023-01-19T10:49:37.682Z,10.40
2023-01-19T10:52:07.390Z,11.20
2023-01-19T10:54:36.678Z,11.10
2023-01-19T10:57:07.784Z,11.27
2023-01-19T10:59:38.207Z,10.07
2023-01-19T11:02:19.364Z,9.70
2023-01-19T11:04:50.147Z,10.23
2023-01-19T11:07:27.239Z,10.37
2023-01-19T11:10:15.246Z,11.03
2023-01-19T11:12:48.764Z,10.20
2023-01-19T11:15:21.143Z,11.53
2023-01-19T11:17:48.819Z,11.03
2023-01-19T11:20:44.056Z,13.40
2023-01-19T11:23:24.673Z,10.33
2023-01-19T11:25:52.859Z,11.20
2023-01-19T11:28:26.696Z,11.30
2023-01-19T11:30:59.284Z,9.43
2023-01-19T11:33:34.236Z,10.27
2023-01-19T11:36:22.215Z,9.53
2023-01-19T11:38:57.818Z,10.90
2023-01-19T11:41:28.840Z,9.73
2023-01-19T11:44:00.168Z,11.53
2023-01-19T11:46:32.874Z,11.53
2023-01-19T11:49:04.516Z,9.40
2023-01-19T11:51:39.592Z,14.30
2023-01-19T11:54:29.574Z,10.23
2023-01-19T11:56:59.801Z,11.13
2023-01-19T11:59:26.601Z,10.90
2023-01-19T12:02:02.355Z,9.83
2023-01-19T12:04:39.038Z,9.13
2023-01-19T12:07:10.541Z,9.27
2023-01-19T12:09:43.242Z,9.40
2023-01-19T12:12:26.584Z,9.03
2023-01-19T12:14:57.455Z,7.90
2023-01-19T12:17:31.856Z,11.07
2023-01-19T12:20:18.474Z,9.23
2023-01-19T12:22:59.691Z,8.53
2023-01-19T12:25:41.009Z,7.97
2023-01-19T12:28:13.677Z,6.87
2023-01-19T12:30:40.469Z,9.53
2023-01-19T12:33:34.655Z,10.47
2023-01-19T12:36:12.049Z,9.13
2023-01-19T12:38:57.278Z,7.63
2023-01-19T12:41:33.087Z,8.80
2023-01-19T12:44:12.161Z,8.40
2023-01-19T12:46:41.115Z,8.93
2023-01-19T12:49:31.735Z,7.97
2023-01-19T12:52:26.792Z,7.03
2023-01-19T12:55:15.524Z,7.30
2023-01-19T12:57:57.389Z,7.50
2023-01-19T13:00:24.076Z,8.07
2023-01-19T13:02:55.083Z,7.67
2023-01-19T13:05:21.797Z,7.73
2023-01-19T13:08:06.900Z,7.87
2023-01-19T13:10:55.692Z,7.87
2023-01-19T13:13:25.171Z,7.70
2023-01-19T13:15:55.458Z,9.57
2023-01-19T13:18:29.345Z,8.33
2023-01-19T13:21:03.435Z,8.47
2023-01-19T13:23:51.333Z,6.87
2023-01-19T13:26:27.746Z,7.37
2023-01-19T13:29:13.580Z,7.20
2023-01-19T13:31:42.691Z,8.13
2023-01-19T13:34:16.901Z,7.50
2023-01-19T13:36:52.439Z,9.73
2023-01-19T13:39:39.400Z,8.33
2023-01-19T13:42:19.243Z,7.03
2023-01-19T13:44:53.757Z,7.10
2023-01-19T13:47:23.865Z,9.13
2023-01-19T13:49:55.567Z,9.37
2023-01-19T13:52:30.755Z,8.20
2023-01-19T13:55:03.799Z,9.83
2023-01-19T13:57:45.357Z,9.20
2023-01-19T14:00:12.400Z,10.33
2023-01-19T14:02:51.887Z,10.43
2023-01-19T14:05:25.745Z,10.87
2023-01-19T14:08:13.707Z,13.00
2023-01-19T14:10:48.137Z,11.20
2023-01-19T14:13:19.592Z,12.93
2023-01-19T14:15:48.825Z,11.07
2023-01-19T14:18:18.791Z,10.70
2023-01-19T14:20:57.586Z,11.27
2023-01-19T14:23:39.591Z,9.63
2023-01-19T14:26:26.800Z,9.87
2023-01-19T14:28:54.343Z,11.30
2023-01-19T14:31:27.473Z,9.07
2023-01-19T14:33:55.931Z,8.63
2023-01-19T14:36:36.162Z,8.87
2023-01-19T14:39:03.795Z,9.70
2023-01-19T14:41:43.308Z,9.87
2023-01-19T14:44:11.348Z,9.63
2023-01-19T14:46:55.297Z,8.43
2023-01-19T14:49:29.174Z,8.73
2023-01-19T14:51:56.415Z,7.53
2023-01-19T14:54:38.163Z,8.80
2023-01-19T14:57:05.360Z,8.97
2023-01-19T14:59:32.790Z,9.23
2023-01-19T15:01:59.814Z,8.47
2023-01-19T15:04:26.713Z,9.83
2023-01-19T15:06:54.643Z,10.33
2023-01-19T15:09:21.414Z,18.70
2023-01-19T15:11:50.075Z,16.43
2023-01-19T15:14:18.647Z,18.13
2023-01-19T15:16:45.776Z,20.67
2023-01-19T15:19:13.869Z,17.90
2023-01-19T15:21:45.194Z,18.03
2023-01-19T15:24:13.353Z,17.57
2023-01-19T15:26:42.208Z,14.60
2023-01-19T15:29:30.602Z,14.40
2023-01-19T15:31:58.885Z,15.10
2023-01-19T15:34:25.613Z,15.17
2023-01-19T15:36:52.335Z,13.50
2023-01-19T15:39:19.046Z,14.17
2023-01-19T15:41:45.788Z,15.57
2023-01-19T15:44:12.572Z,14.73
2023-01-19T15:46:39.278Z,16.10
2023-01-19T15:49:06.116Z,16.43
2023-01-19T15:51:33.182Z,16.00
2023-01-19T15:53:59.972Z,13.27
2023-01-19T15:56:29.582Z,11.93
2023-01-19T15:58:57.915Z,17.10
2023-01-19T16:01:33.838Z,11.27
2023-01-19T16:04:06.116Z,18.37
2023-01-19T16:06:33.779Z,11.87
2023-01-19T16:09:01.474Z,11.90
2023-01-19T16:11:30.469Z,12.53
2023-01-19T16:13:57.202Z,12.27
2023-01-19T16:16:25.354Z,12.03
2023-01-19T16:18:52.448Z,10.93
2023-01-19T16:21:19.370Z,12.27
2023-01-19T16:23:46.135Z,11.63
2023-01-19T16:26:32.150Z,10.50
2023-01-19T16:29:01.531Z,12.13
2023-01-19T16:31:29.582Z,9.47
2023-01-19T16:33:56.348Z,9.17
2023-01-19T16:36:31.900Z,8.57
2023-01-19T16:39:07.172Z,12.07
2023-01-19T16:41:34.762Z,12.57
2023-01-19T16:44:02.019Z,11.30
2023-01-19T16:46:33.776Z,13.00
2023-01-19T16:49:02.488Z,10.93
2023-01-19T16:51:29.619Z,11.50
2023-01-19T16:53:56.560Z,10.73
2023-01-19T16:56:23.364Z,11.40
2023-01-19T16:58:57.585Z,9.47
2023-01-19T17:01:26.145Z,11.03
2023-01-19T17:03:53.229Z,10.97
2023-01-19T17:06:25.280Z,11.23
2023-01-19T17:08:52.831Z,11.13
2023-01-19T17:11:22.734Z,9.87
2023-01-19T17:13:56.788Z,9.57
2023-01-19T17:16:24.859Z,10.90
2023-01-19T17:18:53.089Z,9.83
2023-01-19T17:21:20.321Z,10.57
2023-01-19T17:23:49.735Z,13.37
2023-01-19T17:26:17.652Z,14.30
2023-01-19T17:28:45.086Z,14.73
2023-01-19T17:31:17.503Z,12.87
2023-01-19T17:33:46.571Z,12.97
2023-01-19T17:36:15.945Z,11.50
2023-01-19T17:38:43.125Z,10.27
2023-01-19T17:41:13.514Z,9.00
2023-01-19T17:43:40.411Z,13.03
2023-01-19T17:46:07.192Z,11.77
2023-01-19T17:48:33.927Z,8.53
2023-01-19T17:51:11.115Z,8.17
2023-01-19T17:53:39.526Z,9.93
2023-01-19T17:56:14.553Z,8.13
2023-01-19T17:58:42.089Z,8.07
2023-01-19T18:01:14.735Z,7.13
2023-01-19T18:03:42.787Z,8.07
2023-01-19T18:06:10.378Z,8.37
2023-01-19T18:08:42.774Z,7.60
2023-01-19T18:11:10.373Z,8.70
2023-01-19T18:13:37.894Z,10.10
2023-01-19T18:16:07.471Z,9.87
2023-01-19T18:18:35.314Z,9.23
2023-01-19T18:21:10.280Z,8.50
2023-01-19T18:23:37.352Z,8.37
2023-01-19T18:26:23.743Z,9.80
2023-01-19T18:28:54.245Z,8.43
2023-01-19T18:31:20.987Z,7.57
2023-01-19T18:33:48.507Z,8.57
2023-01-19T18:36:16.298Z,8.17
2023-01-19T18:38:43.286Z,8.33
2023-01-19T18:41:16.193Z,7.93
2023-01-19T18:43:43.514Z,8.53
2023-01-19T18:46:10.608Z,9.80
2023-01-19T18:48:38.599Z,7.30
2023-01-19T18:51:10.676Z,7.73
2023-01-19T18:53:37.911Z,6.33
2023-01-19T18:56:05.763Z,6.50
2023-01-19T18:58:33.231Z,6.63
2023-01-19T19:01:00.999Z,6.97
2023-01-19T19:03:28.363Z,7.23
2023-01-19T19:05:55.335Z,7.27
2023-01-19T19:08:22.365Z,8.33
2023-01-19T19:10:49.153Z,8.27
2023-01-19T19:13:17.464Z,8.90
2023-01-19T19:15:44.411Z,8.37
2023-01-19T19:18:13.713Z,9.07
2023-01-19T19:20:42.066Z,9.20
2023-01-19T19:23:09.576Z,9.90
2023-01-19T19:25:36.409Z,9.50
2023-01-19T19:28:03.454Z,8.93
2023-01-19T19:30:30.503Z,10.33
2023-01-19T19:32:58.855Z,8.87
2023-01-19T19:35:26.070Z,7.13
2023-01-19T19:37:57.391Z,8.00
2023-01-19T19:40:25.910Z,7.93
2023-01-19T19:42:52.894Z,9.40
2023-01-19T19:45:19.921Z,8.37
2023-01-19T19:47:46.769Z,8.07
2023-01-19T19:50:14.230Z,7.27
2023-01-19T19:52:42.126Z,7.27
2023-01-19T19:55:10.443Z,8.03
2023-01-19T19:57:37.395Z,6.63
2023-01-19T20:00:05.590Z,6.43
2023-01-19T20:02:36.589Z,6.50
2023-01-19T20:05:04.395Z,6.77
2023-01-19T20:07:31.264Z,7.37
2023-01-19T20:09:58.070Z,7.90
2023-01-19T20:12:24.886Z,6.77
2023-01-19T20:14:51.726Z,7.87
2023-01-19T20:17:18.999Z,7.37
2023-01-19T20:19:47.541Z,5.83
2023-01-19T20:22:14.787Z,5.60
2023-01-19T20:24:41.496Z,7.03
2023-01-19T20:27:08.242Z,6.20
2023-01-19T20:29:35.147Z,7.07
2023-01-19T20:32:02.024Z,6.93
2023-01-19T20:34:33.394Z,6.63
2023-01-19T20:37:01.754Z,8.63
2023-01-19T20:39:30.027Z,6.83
2023-01-19T20:41:56.852Z,7.53
2023-01-19T20:44:25.380Z,7.33
2023-01-19T20:46:53.466Z,7.40
2023-01-19T20:49:20.665Z,7.43
2023-01-19T20:51:48.313Z,7.83
2023-01-19T20:54:17.545Z,6.90
2023-01-19T20:56:44.607Z,9.47
2023-01-19T20:59:12.258Z,7.13
2023-01-19T21:01:40.846Z,6.93
2023-01-19T21:04:08.425Z,7.17
2023-01-19T21:06:35.643Z,7.27
2023-01-19T21:09:03.023Z,7.20
2023-01-19T21:11:30.168Z,6.20
2023-01-19T21:13:56.937Z,7.30
2023-01-19T21:16:30.011Z,5.80
2023-01-19T21:18:57.070Z,6.63
2023-01-19T21:21:30.774Z,7.10
2023-01-19T21:24:02.968Z,7.43
2023-01-19T21:26:30.703Z,8.37
2023-01-19T21:28:58.803Z,5.90
2023-01-19T21:31:27.691Z,7.67
2023-01-19T21:33:56.322Z,7.27
2023-01-19T21:36:23.865Z,8.03
2023-01-19T21:38:51.455Z,7.53
2023-01-19T21:41:18.828Z,6.53
2023-01-19T21:43:46.194Z,7.77
2023-01-19T21:46:17.606Z,7.67
2023-01-19T21:48:45.753Z,6.20
2023-01-19T21:51:12.729Z,6.50
2023-01-19T21:53:39.695Z,7.80
2023-01-19T21:56:08.042Z,8.77
2023-01-19T21:58:35.132Z,7.17
2023-01-19T22:01:04.298Z,6.20
2023-01-19T22:03:31.169Z,7.60
2023-01-19T22:06:04.815Z,7.37
2023-01-19T22:08:31.704Z,8.87
2023-01-19T22:11:06.108Z,6.53
2023-01-19T22:13:34.382Z,8.07
2023-01-19T22:16:02.457Z,7.17
2023-01-19T22:18:29.596Z,6.37
2023-01-19T22:20:56.495Z,5.93
2023-01-19T22:23:23.228Z,6.13
2023-01-19T22:25:49.992Z,8.47
2023-01-19T22:28:16.694Z,8.90
2023-01-19T22:30:43.557Z,7.17
2023-01-19T22:33:10.372Z,8.47
2023-01-19T22:35:37.109Z,7.13
2023-01-19T22:38:03.937Z,7.00
2023-01-19T22:40:30.700Z,7.13
2023-01-19T22:42:57.468Z,8.00
2023-01-19T22:45:24.338Z,8.17
2023-01-19T22:47:51.197Z,7.80
2023-01-19T22:50:18.062Z,8.30
2023-01-19T22:52:44.859Z,6.67
2023-01-19T22:55:11.869Z,7.50
2023-01-19T22:57:39.609Z,6.53
2023-01-19T23:00:08.622Z,9.10
2023-01-19T23:02:35.405Z,9.13
2023-01-19T23:05:02.119Z,7.97
2023-01-19T23:07:28.922Z,8.87
2023-01-19T23:09:55.664Z,10.10
2023-01-19T23:12:22.469Z,8.97
2023-01-19T23:14:49.248Z,9.40
2023-01-19T23:17:16.036Z,8.53
2023-01-19T23:19:42.786Z,9.37
2023-01-19T23:22:09.536Z,10.50
2023-01-19T23:24:36.311Z,10.33
2023-01-19T23:27:03.064Z,10.50
2023-01-19T23:29:29.830Z,11.47
2023-01-19T23:31:56.929Z,11.53
2023-01-19T23:34:23.691Z,12.40
2023-01-19T23:36:50.509Z,12.77
2023-01-19T23:39:20.054Z,13.20
2023-01-19T23:41:47.636Z,12.33
2023-01-19T23:44:14.640Z,11.73
2023-01-19T23:46:41.438Z,12.80
2023-01-19T23:49:08.191Z,11.53
2023-01-19T23:51:35.747Z,12.53
2023-01-19T23:54:03.168Z,10.10
2023-01-19T23:56:32.950Z,12.17
2023-01-19T23:59:05.889Z,13.47
